Time;durP1;ratioP1;P1;durP2;ratioP2;P2;SDS_P1;SDS_P2;PMS_P1;PMS_P2;Temp;Humidity;BMP_temperature;BMP_pressure;BME280_temperature;BME280_humidity;BME280_pressure;Samples;Min_cycle;Max_cycle;Signal;HPM_P1;HPM_P2
2022/06/05 00:00:13;;;;;;;10.43;8.80;;;;;;;18.30;52.22;101195.31;678823;29;1341;-79
2022/06/05 00:00:43;;;;;;;11.77;9.25;;;;;;;18.32;52.13;101201.50;680018;29;883;-80
2022/06/05 00:01:45;;;;;;;11.98;9.48;;;;;;;18.34;52.13;101200.59;682531;28;1364;-79
2022/06/05 00:02:28;;;;;;;11.35;9.40;;;;;;;18.26;52.20;101183.84;685623;28;1280;-79
2022/06/05 00:02:58;;;;;;;10.35;9.10;;;;;;;18.34;52.02;101197.09;683057;28;1503;-79
2022/06/05 00:03:30;;;;;;;10.85;9.38;;;;;;;18.26;52.01;101185.63;682614;28;1155;-80
2022/06/05 00:04:11;;;;;;;11.13;9.43;;;;;;;18.31;52.15;101203.25;688032;28;939;-79
2022/06/05 00:04:59;;;;;;;10.68;9.00;;;;;;;18.23;52.22;101191.78;680026;29;1261;-79
2022/06/05 00:05:27;;;;;;;10.23;9.13;;;;;;;18.26;52.24;101207.63;682790;28;1723;-79
2022/06/05 00:06:01;;;;;;;10.32;9.23;;;;;;;18.25;52.17;101205.88;685477;28;1263;-79
2022/06/05 00:06:48;;;;;;;11.23;9.18;;;;;;;18.21;52.28;101198.84;683259;28;1959;-78
2022/06/05 00:07:26;;;;;;;10.23;9.07;;;;;;;18.14;52.18;101194.38;684721;28;1348;-79
2022/06/05 00:07:59;;;;;;;10.52;9.43;;;;;;;18.13;52.07;101195.25;683215;28;945;-79
2022/06/05 00:08:35;;;;;;;10.07;9.05;;;;;;;18.13;52.20;101197.91;685442;28;1064;-79
2022/06/05 00:09:08;;;;;;;9.98;8.93;;;;;;;18.17;52.26;101205.88;685285;28;1048;-78
2022/06/05 00:09:55;;;;;;;10.80;8.98;;;;;;;18.18;52.37;101214.66;682618;28;1051;-78
2022/06/05 00:10:26;;;;;;;10.25;8.85;;;;;;;18.17;52.32;101204.97;680170;29;1017;-78
2022/06/05 00:10:54;;;;;;;10.25;9.20;;;;;;;18.07;52.18;101190.84;683034;28;1031;-79
2022/06/05 00:11:16;;;;;;;9.85;8.85;;;;;;;18.06;52.34;101189.94;685886;28;1113;-79
2022/06/05 00:11:54;;;;;;;9.15;8.23;;;;;;;18.12;52.45;101202.28;682568;28;1282;-79
2022/06/05 00:12:18;;;;;;;10.30;8.98;;;;;;;18.13;52.39;101206.69;687240;28;1533;-78
2022/06/05 00:13:09;;;;;;;11.35;9.50;;;;;;;18.11;52.43;101200.53;679933;29;1360;-79
2022/06/05 00:13:46;;;;;;;11.70;9.52;;;;;;;18.08;52.57;101193.47;683052;28;1070;-79
2022/06/05 00:14:14;;;;;;;10.35;8.80;;;;;;;18.06;52.45;101199.63;684388;28;1411;-79
2022/06/05 00:14:37;;;;;;;9.90;8.90;;;;;;;18.06;52.32;101192.59;685322;28;1261;-79
2022/06/05 00:14:58;;;;;;;11.15;9.02;;;;;;;18.04;52.43;101191.72;686492;28;1273;-79
2022/06/05 00:15:19;;;;;;;11.25;8.73;;;;;;;18.00;52.63;101182.00;685324;28;1174;-80
2022/06/05 00:15:39;;;;;;;11.05;8.63;;;;;;;18.09;52.36;101197.88;685516;28;939;-79
2022/06/05 00:16:01;;;;;;;9.27;8.35;;;;;;;18.07;52.50;101199.63;682669;28;1403;-79
2022/06/05 00:16:25;;;;;;;9.57;8.65;;;;;;;18.02;52.47;101192.56;679949;29;1043;-79
2022/06/05 00:16:46;;;;;;;9.85;8.85;;;;;;;18.08;52.32;101201.38;685420;28;934;-78
2022/06/05 00:17:17;;;;;;;10.25;9.20;;;;;;;18.04;52.42;101202.28;685242;28;1167;-79
2022/06/05 00:17:38;;;;;;;10.10;9.10;;;;;;;18.02;52.49;101192.56;682263;29;914;-77
2022/06/05 00:17:59;;;;;;;9.38;8.38;;;;;;;17.98;52.60;101189.03;682456;28;1052;-78
2022/06/05 00:18:20;;;;;;;9.10;8.20;;;;;;;18.01;52.52;101196.97;685335;28;1255;-79
2022/06/05 00:18:42;;;;;;;9.43;8.52;;;;;;;17.97;52.69;101194.31;685486;28;1169;-79
2022/06/05 00:19:04;;;;;;;10.35;9.25;;;;;;;18.02;52.63;101193.44;686581;28;1392;-79
2022/06/05 00:19:24;;;;;;;11.77;9.30;;;;;;;18.04;52.78;101202.28;684533;28;1154;-79
2022/06/05 00:19:51;;;;;;;11.27;9.07;;;;;;;18.06;52.32;101207.53;685111;28;1276;-78
2022/06/05 00:20:12;;;;;;;11.10;8.90;;;;;;;18.01;52.65;101202.25;682123;29;1316;-79
2022/06/05 00:20:33;;;;;;;10.93;8.95;;;;;;;18.04;52.38;101202.28;684376;28;1201;-79
2022/06/05 00:20:54;;;;;;;11.05;9.40;;;;;;;18.05;52.50;101208.41;683928;28;1269;-79
2022/06/05 00:21:14;;;;;;;10.95;9.40;;;;;;;17.98;52.64;101196.06;682508;28;1172;-79
2022/06/05 00:21:35;;;;;;;10.02;9.02;;;;;;;17.97;52.54;101192.56;679351;29;1291;-79
2022/06/05 00:21:59;;;;;;;10.27;8.82;;;;;;;17.95;52.68;101194.31;685805;28;1373;-79
2022/06/05 00:22:20;;;;;;;10.25;9.07;;;;;;;18.00;52.54;101204.91;685345;28;1471;-79
2022/06/05 00:22:41;;;;;;;11.32;8.95;;;;;;;17.97;52.85;101205.75;682737;28;1198;-79
2022/06/05 00:23:02;;;;;;;11.60;8.93;;;;;;;17.96;52.83;101204.00;680897;28;1273;-79
2022/06/05 00:23:23;;;;;;;11.20;8.95;;;;;;;17.92;52.74;101195.19;679885;29;1127;-79
2022/06/05 00:23:44;;;;;;;10.20;9.20;;;;;;;17.99;52.88;101209.28;680035;28;1282;-79
2022/06/05 00:24:05;;;;;;;10.18;9.18;;;;;;;17.96;52.64;101204.00;686169;28;1358;-79
2022/06/05 00:24:25;;;;;;;10.18;9.18;;;;;;;17.92;52.67;101202.22;687685;28;1236;-78
2022/06/05 00:24:46;;;;;;;10.07;8.82;;;;;;;17.89;52.66;101191.66;687247;28;1534;-80
2022/06/05 00:25:10;;;;;;;11.32;8.90;;;;;;;17.95;52.69;101207.53;681740;29;1354;-79
2022/06/05 00:25:40;;;;;;;11.60;9.00;;;;;;;17.90;52.75;101196.91;682520;28;1275;-79
2022/06/05 00:26:18;;;;;;;10.65;9.13;;;;;;;17.99;52.53;101218.94;678616;29;1260;-79
2022/06/05 00:27:01;;;;;;;9.73;8.68;;;;;;;17.91;52.60;101203.09;682462;29;1963;-79
2022/06/05 00:27:33;;;;;;;10.20;9.20;;;;;;;17.92;52.71;101210.13;680976;29;1197;-79
2022/06/05 00:28:15;;;;;;;10.13;9.13;;;;;;;17.89;52.59;101213.63;682049;28;1454;-79
2022/06/05 00:28:38;;;;;;;9.80;8.80;;;;;;;17.93;52.82;101214.53;682806;29;1022;-79
2022/06/05 00:29:21;;;;;;;9.63;8.63;;;;;;;17.89;52.74;101212.78;683218;28;1107;-79
2022/06/05 00:29:42;;;;;;;10.55;9.00;;;;;;;17.91;52.80;101218.94;687792;28;1892;-79
2022/06/05 00:30:47;;;;;;;10.48;9.20;;;;;;;17.90;52.93;101219.81;686485;28;1115;-79
2022/06/05 00:31:33;;;;;;;11.07;8.60;;;;;;;17.82;52.83;101211.84;682325;29;1504;-78
2022/06/05 00:32:06;;;;;;;11.68;9.35;;;;;;;17.88;52.93;101218.94;685318;28;1049;-79
2022/06/05 00:32:43;;;;;;;12.40;9.80;;;;;;;17.82;52.89;101211.84;685144;28;1878;-80
2022/06/05 00:33:31;;;;;;;9.77;8.82;;;;;;;17.85;52.85;101210.97;685700;28;1338;-79
2022/06/05 00:33:52;;;;;;;9.80;8.80;;;;;;;17.78;52.97;101208.28;679571;29;1206;-79
2022/06/05 00:34:13;;;;;;;9.98;8.70;;;;;;;17.79;52.96;101204.81;677057;29;1310;-79
2022/06/05 00:34:33;;;;;;;10.15;9.05;;;;;;;17.82;52.87;101217.13;674861;29;849;-79
2022/06/05 00:34:54;;;;;;;11.33;9.70;;;;;;;17.78;52.73;101207.44;675870;29;1407;-79
2022/06/05 00:35:17;;;;;;;10.80;9.70;;;;;;;17.74;52.87;101203.91;680093;29;737;-79
2022/06/05 00:35:57;;;;;;;10.25;8.98;;;;;;;17.77;52.88;101203.91;680024;29;875;-79
2022/06/05 00:36:32;;;;;;;10.82;9.07;;;;;;;17.84;52.86;101218.03;674620;29;1070;-79
2022/06/05 00:37:12;;;;;;;11.75;8.80;;;;;;;17.80;53.04;101213.59;679883;29;1348;-79
2022/06/05 00:37:38;;;;;;;11.85;8.40;;;;;;;17.81;52.95;101221.53;679970;29;1053;-79
2022/06/05 00:38:14;;;;;;;9.77;8.75;;;;;;;17.84;52.87;101225.94;684092;28;1053;-79
2022/06/05 00:38:57;;;;;;;10.10;9.00;;;;;;;17.83;52.87;101223.28;684848;28;1221;-79
2022/06/05 00:39:34;;;;;;;10.98;9.10;;;;;;;17.74;52.81;101211.81;682483;29;1432;-79
2022/06/05 00:40:13;;;;;;;9.95;8.43;;;;;;;17.81;52.85;101224.16;682465;28;1140;-79
2022/06/05 00:41:01;;;;;;;10.10;8.55;;;;;;;17.80;52.80;101229.44;684878;28;1139;-80
2022/06/05 00:41:47;;;;;;;10.23;8.65;;;;;;;17.82;52.67;101227.69;682783;29;1061;-79
2022/06/05 00:42:11;;;;;;;10.77;8.70;;;;;;;17.76;52.85;101223.25;687763;28;1279;-79
2022/06/05 00:42:33;;;;;;;10.27;8.40;;;;;;;17.76;53.00;101217.97;687851;28;1304;-79
2022/06/05 00:42:56;;;;;;;10.15;8.40;;;;;;;17.75;52.81;101220.59;687994;28;1433;-79
2022/06/05 00:43:22;;;;;;;10.23;8.30;;;;;;;17.77;52.99;101225.00;680129;29;1240;-80
2022/06/05 00:43:44;;;;;;;10.18;8.23;;;;;;;17.74;52.87;101219.72;682201;29;1178;-80
2022/06/05 00:44:06;;;;;;;11.32;8.68;;;;;;;17.78;52.74;101224.13;682730;29;1540;-79
2022/06/05 00:44:47;;;;;;;11.90;8.77;;;;;;;17.72;52.71;101216.22;687949;28;1228;-79
2022/06/05 00:45:12;;;;;;;11.93;8.75;;;;;;;17.71;52.76;101208.28;687949;28;1089;-80
2022/06/05 00:45:33;;;;;;;11.40;8.63;;;;;;;17.68;52.72;101210.03;685447;28;969;-80
2022/06/05 00:45:56;;;;;;;9.75;8.75;;;;;;;17.70;52.73;101212.66;685623;28;1211;-79
2022/06/05 00:46:18;;;;;;;9.95;8.95;;;;;;;17.71;52.85;101213.56;682638;28;1110;-80
2022/06/05 00:46:41;;;;;;;9.95;8.95;;;;;;;17.73;52.69;101222.34;682716;29;1973;-80
2022/06/05 00:47:03;;;;;;;9.75;8.75;;;;;;;17.69;52.60;101216.19;685596;28;1234;-79
2022/06/05 00:47:30;;;;;;;9.65;8.50;;;;;;;17.71;52.75;101211.81;682930;28;1272;-79
2022/06/05 00:47:51;;;;;;;13.40;8.90;;;;;;;17.66;52.75;101205.63;678170;29;1337;-79
2022/06/05 00:48:12;;;;;;;12.77;8.83;;;;;;;17.71;52.67;101214.44;685465;28;1088;-79
2022/06/05 00:48:33;;;;;;;10.48;9.10;;;;;;;17.71;52.78;101219.72;682947;29;1153;-79
2022/06/05 00:48:55;;;;;;;9.98;8.98;;;;;;;17.73;52.74;101225.00;684445;28;1601;-79
2022/06/05 00:49:16;;;;;;;10.23;9.23;;;;;;;17.69;52.51;101218.81;688504;28;1484;-80
2022/06/05 00:49:44;;;;;;;10.32;9.30;;;;;;;17.68;52.48;101215.31;685546;28;1038;-79
2022/06/05 00:50:08;;;;;;;11.43;9.23;;;;;;;17.70;52.66;101219.72;682985;29;1286;-79
2022/06/05 00:50:31;;;;;;;12.75;8.95;;;;;;;17.69;52.79;101216.19;683230;29;1329;-79
2022/06/05 00:50:51;;;;;;;14.32;9.00;;;;;;;17.62;52.93;101204.72;683498;28;792;-80
2022/06/05 00:51:12;;;;;;;13.00;9.18;;;;;;;17.61;52.71;101208.22;685914;28;1361;-79
2022/06/05 00:51:33;;;;;;;11.50;9.07;;;;;;;17.61;52.78;101208.22;685891;28;1128;-80
2022/06/05 00:51:54;;;;;;;10.13;9.02;;;;;;;17.58;52.77;101205.56;682387;29;1033;-79
2022/06/05 00:52:15;;;;;;;9.87;8.87;;;;;;;17.59;52.86;101203.81;686047;28;1135;-78
2022/06/05 00:52:41;;;;;;;10.25;9.00;;;;;;;17.61;52.96;101209.97;685504;29;1002;-80
2022/06/05 00:53:06;;;;;;;9.70;8.57;;;;;;;17.65;52.93;101220.56;684455;28;1163;-79
2022/06/05 00:53:26;;;;;;;10.77;8.63;;;;;;;17.65;52.87;101219.69;680472;29;1257;-79
2022/06/05 00:53:48;;;;;;;10.10;8.60;;;;;;;17.59;52.83;101214.38;680418;29;783;-79
2022/06/05 00:54:09;;;;;;;10.55;8.70;;;;;;;17.62;52.79;101219.66;684644;28;1312;-79
2022/06/05 00:54:29;;;;;;;9.85;8.77;;;;;;;17.54;52.91;101206.44;683014;29;1003;-79
2022/06/05 00:54:50;;;;;;;10.88;8.88;;;;;;;17.54;52.88;101212.56;685549;28;1473;-79
2022/06/05 00:55:13;;;;;;;11.43;9.02;;;;;;;17.58;52.92;101220.53;685222;28;1265;-79
2022/06/05 00:55:43;;;;;;;11.52;8.85;;;;;;;17.54;52.97;101212.56;682884;29;1375;-79
2022/06/05 00:56:08;;;;;;;11.00;8.50;;;;;;;17.47;53.09;101204.63;680797;29;1670;-79
2022/06/05 00:56:30;;;;;;;10.45;8.02;;;;;;;17.50;53.03;101216.06;680606;29;1293;-79
2022/06/05 00:56:51;;;;;;;12.02;8.48;;;;;;;17.48;52.96;101212.56;679655;29;1391;-79
2022/06/05 00:57:13;;;;;;;11.67;8.70;;;;;;;17.47;53.18;101210.78;682612;29;1155;-79
2022/06/05 00:57:36;;;;;;;11.75;9.20;;;;;;;17.51;53.06;101215.19;685275;28;1345;-79
2022/06/05 00:57:57;;;;;;;10.90;8.70;;;;;;;17.49;53.26;101203.75;683191;28;1275;-80
2022/06/05 00:58:20;;;;;;;10.25;8.45;;;;;;;17.47;53.11;101213.44;685271;28;1335;-79
2022/06/05 00:58:41;;;;;;;10.35;8.32;;;;;;;17.42;53.14;101201.06;680179;29;851;-79
2022/06/05 00:59:02;;;;;;;9.15;8.15;;;;;;;17.48;53.23;101203.75;686167;28;1214;-79
2022/06/05 00:59:23;;;;;;;9.60;8.67;;;;;;;17.40;53.39;101187.88;688118;28;986;-79
2022/06/05 00:59:47;;;;;;;9.57;8.57;;;;;;;17.52;53.31;101209.03;680031;28;1363;-79
2022/06/05 01:00:33;;;;;;;10.50;8.90;;;;;;;17.50;53.32;101207.25;684585;28;1072;-79
2022/06/05 01:00:54;;;;;;;11.27;9.00;;;;;;;17.44;53.38;101183.50;687950;28;1202;-79
2022/06/05 01:01:15;;;;;;;10.50;9.20;;;;;;;17.44;53.34;101189.66;685116;28;1110;-79
2022/06/05 01:01:36;;;;;;;10.70;8.93;;;;;;;17.48;53.53;101196.72;682673;28;1078;-79
2022/06/05 01:01:58;;;;;;;11.10;9.30;;;;;;;17.45;53.30;101191.41;683469;28;1257;-80
2022/06/05 01:02:18;;;;;;;10.50;9.30;;;;;;;17.44;53.37;101184.38;685709;28;1179;-79
2022/06/05 01:02:41;;;;;;;10.20;9.20;;;;;;;17.48;53.46;101191.44;687659;28;1842;-79
2022/06/05 01:03:06;;;;;;;9.75;8.75;;;;;;;17.48;53.34;101195.81;683988;28;1243;-79
2022/06/05 01:03:27;;;;;;;9.80;8.80;;;;;;;17.39;53.35;101175.53;682493;29;933;-79
2022/06/05 01:03:49;;;;;;;10.02;8.75;;;;;;;17.46;53.27;101187.91;688116;28;1166;-79
2022/06/05 01:04:10;;;;;;;10.48;8.90;;;;;;;17.40;53.19;101179.97;689988;28;1197;-79
2022/06/05 01:04:33;;;;;;;9.57;8.50;;;;;;;17.36;53.30;101176.44;688012;28;1125;-79
2022/06/05 01:04:54;;;;;;;9.43;8.43;;;;;;;17.41;53.46;101179.09;682534;29;1572;-79
2022/06/05 01:05:16;;;;;;;9.43;8.52;;;;;;;17.36;53.36;101172.91;684377;28;1515;-79
2022/06/05 01:05:39;;;;;;;9.50;8.50;;;;;;;17.35;53.45;101174.66;682809;29;892;-79
2022/06/05 01:06:00;;;;;;;9.65;8.65;;;;;;;17.31;53.53;101166.69;687150;28;1701;-79
2022/06/05 01:06:20;;;;;;;9.50;8.50;;;;;;;17.33;53.47;101172.88;685763;28;1182;-79
2022/06/05 01:06:41;;;;;;;9.73;8.73;;;;;;;17.32;53.35;101171.13;682055;29;1246;-79
2022/06/05 01:07:03;;;;;;;9.57;8.63;;;;;;;17.24;53.67;101161.41;682618;28;1197;-79
2022/06/05 01:07:23;;;;;;;9.63;8.65;;;;;;;17.27;53.37;101163.16;682479;29;1343;-79
2022/06/05 01:07:44;;;;;;;9.30;8.40;;;;;;;17.34;53.47;101182.56;680018;29;1149;-79
2022/06/05 01:08:06;;;;;;;9.52;8.50;;;;;;;17.29;53.60;101177.25;684073;28;1100;-79
2022/06/05 01:08:27;;;;;;;9.75;8.65;;;;;;;17.24;53.52;101169.31;685300;28;831;-80
2022/06/05 01:08:47;;;;;;;10.65;8.70;;;;;;;17.22;53.61;101165.75;688155;28;760;-79
2022/06/05 01:09:08;;;;;;;10.47;8.57;;;;;;;17.22;53.59;101167.53;687327;28;1195;-79
2022/06/05 01:09:29;;;;;;;10.73;8.88;;;;;;;17.19;53.79;101164.81;681210;28;1094;-79
2022/06/05 01:09:51;;;;;;;9.73;8.65;;;;;;;17.22;53.69;101173.69;682378;28;1043;-79
2022/06/05 01:10:14;;;;;;;9.60;8.60;;;;;;;17.26;53.67;101175.47;685181;28;1128;-79
2022/06/05 01:11:09;;;;;;;9.70;8.52;;;;;;;17.22;53.71;101175.44;685312;28;1225;-79
2022/06/05 01:11:44;;;;;;;10.75;8.80;;;;;;;17.28;53.75;101183.41;685119;28;1656;-79
2022/06/05 01:12:55;;;;;;;10.50;8.90;;;;;;;17.27;53.63;101184.25;685300;28;1123;-80
2022/06/05 01:13:40;;;;;;;12.13;8.90;;;;;;;17.24;53.64;101177.22;683130;28;1357;-79
2022/06/05 01:14:16;;;;;;;9.80;8.80;;;;;;;17.25;54.10;101178.09;687186;28;1187;-79
2022/06/05 01:15:02;;;;;;;11.00;8.80;;;;;;;17.25;53.72;101178.09;679902;29;893;-80
2022/06/05 01:15:40;;;;;;;10.82;9.10;;;;;;;17.25;53.70;101179.00;684728;28;1283;-79
2022/06/05 01:16:22;;;;;;;10.20;9.20;;;;;;;17.15;53.67;101157.78;683337;28;1277;-79
2022/06/05 01:16:53;;;;;;;10.27;9.10;;;;;;;17.23;53.66;101167.53;682894;28;1594;-80
2022/06/05 01:17:56;;;;;;;11.00;9.38;;;;;;;17.17;53.90;101161.31;687794;28;1413;-80
2022/06/05 01:18:55;;;;;;;10.25;8.98;;;;;;;17.21;53.82;101177.19;677204;29;1366;-78
2022/06/05 01:19:43;;;;;;;10.07;8.40;;;;;;;17.19;53.65;101163.09;670519;29;1201;-79
2022/06/05 01:20:16;;;;;;;10.50;8.85;;;;;;;17.08;53.79;101151.59;684757;28;1487;-79
2022/06/05 01:21:04;;;;;;;10.27;8.90;;;;;;;17.15;53.89;101169.19;685143;28;1284;-80
2022/06/05 01:21:43;;;;;;;10.10;9.00;;;;;;;17.11;53.79;101157.75;682525;29;1156;-79
2022/06/05 01:22:43;;;;;;;9.77;8.77;;;;;;;17.06;53.93;101163.88;682329;29;1194;-79
2022/06/05 01:23:35;;;;;;;9.70;8.70;;;;;;;17.02;54.07;101164.72;682829;28;1711;-79
2022/06/05 01:24:33;;;;;;;10.90;8.80;;;;;;;16.98;54.16;101158.56;688228;28;1228;-80
2022/06/05 01:25:16;;;;;;;9.48;8.40;;;;;;;16.94;54.43;101152.38;688911;28;1512;-80
2022/06/05 01:25:47;;;;;;;9.95;8.45;;;;;;;16.91;54.21;101152.31;682477;28;1362;-79
2022/06/05 01:26:38;;;;;;;11.73;8.88;;;;;;;16.92;54.44;101158.50;678779;29;1148;-79
2022/06/05 01:27:01;;;;;;;9.85;8.50;;;;;;;16.86;54.14;101154.06;679834;29;1068;-79
2022/06/05 01:27:27;;;;;;;10.10;8.65;;;;;;;16.82;54.32;101142.63;679800;29;1439;-79
2022/06/05 01:27:54;;;;;;;9.93;8.93;;;;;;;16.80;54.34;101141.72;682605;28;1217;-79
2022/06/05 01:28:22;;;;;;;10.40;9.30;;;;;;;16.82;54.40;101153.16;685162;28;1152;-80
2022/06/05 01:29:18;;;;;;;11.95;9.02;;;;;;;16.86;54.35;101152.28;685283;28;1252;-80
2022/06/05 01:29:45;;;;;;;11.93;8.80;;;;;;;16.77;54.63;101144.31;679266;29;915;-79
2022/06/05 01:30:17;;;;;;;11.30;8.70;;;;;;;16.75;54.66;101137.25;684192;28;1280;-80
2022/06/05 01:31:04;;;;;;;9.70;8.70;;;;;;;16.76;54.69;101144.28;682752;28;1659;-79
2022/06/05 01:31:35;;;;;;;10.07;8.88;;;;;;;16.72;54.81;101141.66;682475;29;1097;-79
2022/06/05 01:32:06;;;;;;;11.90;9.40;;;;;;;16.73;54.80;101145.19;685208;28;1202;-79
2022/06/05 01:32:40;;;;;;;10.80;9.10;;;;;;;16.76;54.86;101146.94;679782;29;1346;-79
2022/06/05 01:33:09;;;;;;;9.15;8.25;;;;;;;16.71;54.70;101139.88;681816;28;1207;-79
2022/06/05 01:33:31;;;;;;;9.50;8.48;;;;;;;16.72;54.93;101143.41;687826;28;1355;-79
2022/06/05 01:33:56;;;;;;;10.88;9.35;;;;;;;16.77;55.00;101149.59;683848;28;1209;-79
2022/06/05 01:34:37;;;;;;;11.40;9.50;;;;;;;16.71;54.84;101155.69;682462;29;986;-79
2022/06/05 01:35:06;;;;;;;10.30;9.20;;;;;;;16.77;55.08;101154.00;682464;28;1439;-80
2022/06/05 01:35:40;;;;;;;9.57;8.57;;;;;;;16.67;55.19;101148.63;683274;28;1034;-79
2022/06/05 01:36:10;;;;;;;9.82;8.70;;;;;;;16.74;55.08;101148.69;683484;28;1089;-79
2022/06/05 01:36:42;;;;;;;13.27;8.90;;;;;;;16.72;55.03;101154.81;682088;29;1155;-79
2022/06/05 01:37:10;;;;;;;13.13;8.90;;;;;;;16.70;55.20;101151.31;682797;28;1210;-79
2022/06/05 01:37:39;;;;;;;10.70;8.80;;;;;;;16.69;54.96;101146.91;682480;29;1356;-80
2022/06/05 01:38:07;;;;;;;10.25;9.07;;;;;;;16.69;55.14;101146.91;685120;28;1092;-79
2022/06/05 01:38:31;;;;;;;9.90;8.90;;;;;;;16.60;55.13;101141.56;685143;28;1168;-79
2022/06/05 01:39:09;;;;;;;9.70;8.73;;;;;;;16.66;55.19;101144.22;682179;28;1439;-79
2022/06/05 01:39:30;;;;;;;11.05;8.57;;;;;;;16.66;55.07;101146.00;681614;29;1363;-79
2022/06/05 01:39:57;;;;;;;11.98;8.75;;;;;;;16.64;55.09;101148.59;682386;29;1431;-79
2022/06/05 01:40:29;;;;;;;11.27;9.20;;;;;;;16.69;55.09;101148.63;683157;28;986;-79
2022/06/05 01:40:55;;;;;;;12.13;9.75;;;;;;;16.64;55.23;101142.44;687765;28;1229;-80
2022/06/05 01:41:36;;;;;;;11.50;9.00;;;;;;;16.62;55.25;101145.09;687980;28;1042;-79
2022/06/05 01:42:03;;;;;;;9.52;8.52;;;;;;;16.59;55.15;101134.50;684916;28;1064;-79
2022/06/05 01:42:28;;;;;;;10.35;9.07;;;;;;;16.62;55.13;101138.91;685041;28;1409;-79
2022/06/05 01:42:57;;;;;;;10.73;9.30;;;;;;;16.66;55.33;101146.84;682139;29;1248;-79
2022/06/05 01:43:22;;;;;;;10.30;9.15;;;;;;;16.68;55.14;101145.13;682765;28;1501;-79
2022/06/05 01:43:49;;;;;;;10.60;9.50;;;;;;;16.61;55.18;101138.06;682598;29;758;-79
2022/06/05 01:44:15;;;;;;;10.18;9.07;;;;;;;16.62;55.30;101142.44;684945;28;1318;-79
2022/06/05 01:44:42;;;;;;;10.10;9.07;;;;;;;16.64;55.22;101142.44;685127;28;1415;-79
2022/06/05 01:45:17;;;;;;;10.20;9.10;;;;;;;16.60;55.26;101136.28;684992;28;1297;-79
2022/06/05 01:45:44;;;;;;;10.57;8.90;;;;;;;16.63;55.30;101149.47;682500;28;1164;-79
2022/06/05 01:46:07;;;;;;;13.75;8.90;;;;;;;16.61;54.98;101143.31;681144;29;1171;-80
2022/06/05 01:46:36;;;;;;;13.63;8.93;;;;;;;16.61;55.20;101145.06;679710;29;1907;-80
2022/06/05 01:47:03;;;;;;;11.88;9.07;;;;;;;16.53;55.14;101132.69;683178;28;981;-79
2022/06/05 01:47:32;;;;;;;10.90;9.43;;;;;;;16.52;55.28;101130.94;685060;28;1392;-79
2022/06/05 01:47:55;;;;;;;10.35;9.25;;;;;;;16.56;55.14;101150.28;687675;28;1512;-79
2022/06/05 01:48:25;;;;;;;11.18;9.45;;;;;;;16.55;55.00;101143.25;685048;28;1707;-79
2022/06/05 01:49:01;;;;;;;12.20;9.50;;;;;;;16.57;55.03;101145.03;682538;29;876;-79
2022/06/05 01:49:30;;;;;;;13.57;9.57;;;;;;;16.57;55.41;101157.31;682330;29;1393;-79
2022/06/05 01:49:54;;;;;;;13.60;9.50;;;;;;;16.53;55.19;101145.00;682438;29;829;-79
2022/06/05 01:50:22;;;;;;;13.07;9.45;;;;;;;16.55;55.03;101153.78;679776;29;1362;-79
2022/06/05 01:50:47;;;;;;;11.30;9.30;;;;;;;16.49;55.21;101149.38;679950;28;1335;-80
2022/06/05 01:51:17;;;;;;;10.20;8.85;;;;;;;16.53;55.13;101151.13;680993;28;1604;-79
2022/06/05 01:51:45;;;;;;;9.82;8.82;;;;;;;16.57;55.17;101159.94;682389;29;1343;-79
2022/06/05 01:52:15;;;;;;;10.10;9.00;;;;;;;16.53;55.36;101160.81;684108;28;1393;-79
2022/06/05 01:52:43;;;;;;;10.35;9.25;;;;;;;16.49;55.15;101153.72;684153;28;888;-79
2022/06/05 01:53:18;;;;;;;10.18;9.10;;;;;;;16.41;55.20;101136.09;687704;28;1116;-80
2022/06/05 01:53:45;;;;;;;9.80;8.80;;;;;;;16.48;55.10;101151.97;679989;29;1104;-79
2022/06/05 01:54:27;;;;;;;9.82;8.82;;;;;;;16.51;55.37;101167.78;683987;28;1451;-79
2022/06/05 01:54:54;;;;;;;9.75;8.70;;;;;;;16.50;55.39;101166.94;682843;28;808;-79
2022/06/05 01:55:43;;;;;;;10.75;8.60;;;;;;;16.39;55.47;101153.66;686371;28;1820;-79
2022/06/05 01:56:26;;;;;;;10.20;9.20;;;;;;;16.41;55.41;101154.53;686162;28;1378;-79
2022/06/05 01:56:52;;;;;;;9.55;8.55;;;;;;;16.38;55.55;101154.53;682265;28;1560;-79
2022/06/05 01:57:16;;;;;;;11.43;9.15;;;;;;;16.37;55.42;101151.88;682135;29;1334;-79
2022/06/05 01:57:36;;;;;;;12.35;9.50;;;;;;;16.34;55.66;101143.94;679765;29;981;-79
2022/06/05 01:58:01;;;;;;;11.03;9.20;;;;;;;16.40;55.43;101149.25;681674;28;1130;-79
2022/06/05 01:58:39;;;;;;;9.93;8.95;;;;;;;16.36;55.78;101148.38;681892;29;1119;-79
2022/06/05 01:59:08;;;;;;;10.90;9.88;;;;;;;16.39;55.67;101163.28;685033;28;1329;-79
2022/06/05 01:59:44;;;;;;;10.77;9.68;;;;;;;16.31;55.72;101143.03;678723;29;1230;-79
2022/06/05 02:00:14;;;;;;;9.98;8.98;;;;;;;16.34;55.74;101147.44;680360;28;1213;-79
2022/06/05 02:00:35;;;;;;;10.57;9.35;;;;;;;16.34;55.70;101150.06;682204;28;1457;-79
2022/06/05 02:01:02;;;;;;;11.10;9.93;;;;;;;16.31;55.74;101145.66;679779;28;1301;-79
2022/06/05 02:01:33;;;;;;;11.85;9.75;;;;;;;16.30;55.72;101145.66;679691;29;1218;-80
2022/06/05 02:01:58;;;;;;;12.70;9.50;;;;;;;16.30;55.87;101138.63;682524;28;1136;-78
2022/06/05 02:02:28;;;;;;;13.52;9.63;;;;;;;16.38;56.05;101149.25;685617;28;1321;-79
2022/06/05 02:02:59;;;;;;;11.15;9.50;;;;;;;16.34;55.96;101138.69;685081;28;793;-79
2022/06/05 02:03:25;;;;;;;11.88;9.40;;;;;;;16.37;56.33;101143.97;685119;28;1412;-79
2022/06/05 02:03:52;;;;;;;11.82;9.35;;;;;;;16.39;56.12;101140.47;685120;28;792;-80
2022/06/05 02:04:21;;;;;;;10.70;9.40;;;;;;;16.37;55.99;101139.59;690376;28;1372;-79
2022/06/05 02:05:05;;;;;;;10.27;9.18;;;;;;;16.41;56.35;101141.38;687698;28;879;-79
2022/06/05 02:06:03;;;;;;;10.00;9.00;;;;;;;16.44;56.08;101138.78;682185;29;1108;-79
2022/06/05 02:06:43;;;;;;;12.20;9.20;;;;;;;16.37;56.09;101129.06;687602;28;1915;-79
2022/06/05 02:07:26;;;;;;;10.10;9.00;;;;;;;16.41;56.14;101136.09;684906;28;1391;-79
2022/06/05 02:07:52;;;;;;;10.27;8.88;;;;;;;16.41;55.93;101128.19;685079;28;1301;-79
2022/06/05 02:08:28;;;;;;;12.77;9.88;;;;;;;16.46;55.93;101132.66;682226;28;1226;-79
2022/06/05 02:08:56;;;;;;;12.60;10.40;;;;;;;16.42;55.72;101129.97;679847;29;808;-80
2022/06/05 02:09:22;;;;;;;11.35;9.80;;;;;;;16.40;55.71;101126.44;679881;29;956;-79
2022/06/05 02:09:49;;;;;;;10.93;9.55;;;;;;;16.44;55.58;101124.72;679416;29;895;-79
2022/06/05 02:10:33;;;;;;;10.32;9.23;;;;;;;16.39;55.52;101122.03;684532;28;1156;-79
2022/06/05 02:11:05;;;;;;;10.57;9.23;;;;;;;16.43;55.79;101115.91;687845;28;779;-79
2022/06/05 02:11:28;;;;;;;11.27;9.57;;;;;;;16.48;55.46;101125.63;684585;28;1205;-79
2022/06/05 02:11:49;;;;;;;11.27;9.63;;;;;;;16.43;55.61;101118.56;682417;29;1275;-79
2022/06/05 02:12:10;;;;;;;10.60;9.50;;;;;;;16.47;55.57;101135.28;681905;28;1226;-79
2022/06/05 02:12:33;;;;;;;10.35;9.07;;;;;;;16.44;55.52;101120.34;679652;29;1210;-79
2022/06/05 02:12:57;;;;;;;10.73;9.40;;;;;;;16.43;55.55;101118.56;684789;28;1335;-79
2022/06/05 02:13:19;;;;;;;11.65;9.55;;;;;;;16.44;55.90;101124.72;685002;28;1141;-79
2022/06/05 02:13:40;;;;;;;11.80;9.57;;;;;;;16.42;55.72;101127.31;684514;28;1379;-81
2022/06/05 02:14:05;;;;;;;11.82;9.32;;;;;;;16.46;55.89;101133.50;684026;28;1190;-79
2022/06/05 02:14:26;;;;;;;10.65;9.10;;;;;;;16.43;56.12;101123.81;682143;29;1561;-79
2022/06/05 02:14:47;;;;;;;10.98;9.38;;;;;;;16.40;55.67;101118.53;679747;29;1259;-79
2022/06/05 02:15:09;;;;;;;10.70;9.48;;;;;;;16.45;55.80;101126.47;683559;28;1218;-80
2022/06/05 02:15:32;;;;;;;12.40;9.88;;;;;;;16.44;55.93;101124.72;682398;28;1269;-79
2022/06/05 02:15:55;;;;;;;13.02;9.60;;;;;;;16.34;55.88;101107.06;681771;28;1450;-79
2022/06/05 02:16:20;;;;;;;11.98;9.30;;;;;;;16.41;55.99;101125.56;684284;28;1542;-80
2022/06/05 02:16:43;;;;;;;10.55;9.13;;;;;;;16.44;55.88;101120.34;682593;29;827;-79
2022/06/05 02:17:06;;;;;;;10.27;9.20;;;;;;;16.39;55.76;101122.03;685269;28;1230;-79
2022/06/05 02:17:31;;;;;;;10.65;9.25;;;;;;;16.40;55.80;101123.81;687556;28;1459;-79
2022/06/05 02:17:52;;;;;;;12.95;9.52;;;;;;;16.35;55.91;101114.97;682413;29;1277;-79
2022/06/05 02:18:15;;;;;;;13.68;10.05;;;;;;;16.34;55.92;101113.19;679982;29;1177;-80